Time;durP1;ratioP1;P1;durP2;ratioP2;P2;SDS_P1;SDS_P2;PMS_P1;PMS_P2;Temp;Humidity;BMP_temperature;BMP_pressure;BME280_temperature;BME280_humidity;BME280_pressure;Samples;Min_cycle;Max_cycle;Signal;HPM_P1;HPM_P2
2022/09/14 00:02:02;;;;;;;3.38;1.75;;;;;;;;;;5066062;28;20057;-71
2022/09/14 00:04:29;;;;;;;3.72;2.72;;;;;;;;;;5066809;28;20045;-72
2022/09/14 00:06:55;;;;;;;10.32;2.47;;;;;;;;;;5064097;28;20044;-73
2022/09/14 00:09:24;;;;;;;5.50;2.25;;;;;;;;;;5030947;28;20759;-72
2022/09/14 00:11:51;;;;;;;4.50;2.33;;;;;;;;;;5065326;28;20174;-72
2022/09/14 00:14:17;;;;;;;3.85;2.10;;;;;;;;;;5023187;28;20563;-73
2022/09/14 00:16:43;;;;;;;6.55;2.28;;;;;;;;;;5065522;28;20072;-72
2022/09/14 00:19:15;;;;;;;5.63;2.88;;;;;;;;;;5068062;28;21257;-72
2022/09/14 00:21:42;;;;;;;7.38;2.40;;;;;;;;;;5061595;28;20107;-72
2022/09/14 00:24:09;;;;;;;9.95;2.92;;;;;;;;;;5073880;28;20130;-72
2022/09/14 00:26:36;;;;;;;5.15;2.25;;;;;;;;;;5074414;28;20071;-71
2022/09/14 00:29:03;;;;;;;6.13;2.83;;;;;;;;;;5074415;28;20044;-72
2022/09/14 00:31:30;;;;;;;5.10;2.67;;;;;;;;;;5051193;28;20045;-72
2022/09/14 00:33:56;;;;;;;7.43;2.30;;;;;;;;;;5073830;28;20059;-72
2022/09/14 00:36:24;;;;;;;6.15;2.47;;;;;;;;;;5073584;28;20036;-72
2022/09/14 00:38:51;;;;;;;6.88;2.17;;;;;;;;;;5073859;28;20047;-73
2022/09/14 00:41:19;;;;;;;5.85;2.15;;;;;;;;;;5072205;28;20064;-73
2022/09/14 00:43:54;;;;;;;4.38;2.33;;;;;;;;;;5073910;28;20031;-72
2022/09/14 00:46:20;;;;;;;9.23;2.70;;;;;;;;;;5070685;28;21768;-72
2022/09/14 00:48:46;;;;;;;7.05;3.25;;;;;;;;;;5072834;28;20056;-72
2022/09/14 00:51:13;;;;;;;6.00;2.15;;;;;;;;;;5072559;28;20044;-72
2022/09/14 00:53:39;;;;;;;5.13;3.22;;;;;;;;;;5065838;28;20041;-72
2022/09/14 00:56:05;;;;;;;5.57;3.47;;;;;;;;;;5072695;28;20044;-72
2022/09/14 00:58:32;;;;;;;6.80;2.70;;;;;;;;;;5068355;28;20037;-73
2022/09/14 01:01:00;;;;;;;7.32;2.88;;;;;;;;;;5069682;28;20508;-72
2022/09/14 01:03:26;;;;;;;7.93;2.53;;;;;;;;;;5072502;28;20040;-72
2022/09/14 01:05:59;;;;;;;3.03;1.80;;;;;;;;;;5068531;28;20044;-73
2022/09/14 01:08:31;;;;;;;7.03;2.88;;;;;;;;;;5073781;28;20594;-72
2022/09/14 01:11:16;;;;;;;5.88;2.35;;;;;;;;;;5072827;28;20131;-72
2022/09/14 01:13:45;;;;;;;4.53;2.28;;;;;;;;;;5068314;28;20039;-72
2022/09/14 01:16:30;;;;;;;4.40;2.25;;;;;;;;;;5074138;28;20037;-73
2022/09/14 01:19:02;;;;;;;8.85;2.13;;;;;;;;;;5069614;28;20132;-72
2022/09/14 01:21:37;;;;;;;4.60;1.80;;;;;;;;;;5062982;28;20053;-72
2022/09/14 01:24:21;;;;;;;3.45;1.85;;;;;;;;;;5067035;28;20076;-72
2022/09/14 01:26:47;;;;;;;9.63;2.35;;;;;;;;;;5070228;28;20037;-72
2022/09/14 01:29:16;;;;;;;8.75;2.40;;;;;;;;;;5069376;28;20399;-72
2022/09/14 01:31:49;;;;;;;5.72;2.70;;;;;;;;;;5072869;28;20048;-72
2022/09/14 01:34:24;;;;;;;3.65;2.30;;;;;;;;;;5065526;28;20047;-73
2022/09/14 01:36:52;;;;;;;5.22;2.00;;;;;;;;;;5066801;28;20513;-72
2022/09/14 01:39:21;;;;;;;5.28;1.85;;;;;;;;;;5066426;28;20049;-72
2022/09/14 01:41:49;;;;;;;5.25;2.10;;;;;;;;;;5069352;28;20037;-72
2022/09/14 01:44:17;;;;;;;5.10;2.03;;;;;;;;;;5041677;28;21184;-72
2022/09/14 01:46:46;;;;;;;7.68;2.78;;;;;;;;;;5066003;28;20033;-72
2022/09/14 01:49:19;;;;;;;6.97;2.67;;;;;;;;;;5068636;28;20048;-72
2022/09/14 01:51:46;;;;;;;5.57;2.20;;;;;;;;;;5065807;28;20586;-72
2022/09/14 01:54:15;;;;;;;3.72;2.00;;;;;;;;;;5071324;28;20064;-71
2022/09/14 01:56:45;;;;;;;4.07;1.80;;;;;;;;;;5066386;28;20037;-72
2022/09/14 01:59:16;;;;;;;6.10;2.28;;;;;;;;;;5068224;28;20048;-72
2022/09/14 02:01:50;;;;;;;4.93;2.35;;;;;;;;;;5062305;28;20037;-72
2022/09/14 02:04:21;;;;;;;5.25;2.17;;;;;;;;;;5070622;28;20040;-72
2022/09/14 02:06:48;;;;;;;4.70;2.00;;;;;;;;;;5068764;28;21271;-72
2022/09/14 02:09:20;;;;;;;5.78;1.70;;;;;;;;;;5069002;28;20044;-72
2022/09/14 02:11:46;;;;;;;3.92;1.65;;;;;;;;;;5067156;28;20198;-71
2022/09/14 02:14:12;;;;;;;3.22;1.80;;;;;;;;;;5065833;28;20123;-72
2022/09/14 02:16:42;;;;;;;5.53;1.67;;;;;;;;;;5067242;28;20090;-71
2022/09/14 02:19:08;;;;;;;3.63;2.45;;;;;;;;;;5061253;28;20087;-72
2022/09/14 02:21:34;;;;;;;3.20;2.25;;;;;;;;;;5044028;28;20048;-72
2022/09/14 02:24:01;;;;;;;3.40;1.63;;;;;;;;;;5070555;28;20137;-71
2022/09/14 02:26:27;;;;;;;6.28;1.98;;;;;;;;;;5048490;28;20048;-72
2022/09/14 02:28:54;;;;;;;4.25;2.72;;;;;;;;;;5052863;28;20028;-72
2022/09/14 02:31:33;;;;;;;3.92;2.65;;;;;;;;;;5070030;28;20530;-71
2022/09/14 02:34:05;;;;;;;5.45;2.08;;;;;;;;;;5073518;28;20064;-72
2022/09/14 02:36:39;;;;;;;4.15;1.70;;;;;;;;;;5064032;28;20131;-72
2022/09/14 02:39:17;;;;;;;6.30;2.38;;;;;;;;;;5071869;28;21508;-72
2022/09/14 02:42:08;;;;;;;7.80;2.20;;;;;;;;;;5088485;28;20048;-73
2022/09/14 02:44:39;;;;;;;3.15;1.88;;;;;;;;;;5061617;28;20028;-72
2022/09/14 02:47:23;;;;;;;5.43;2.58;;;;;;;;;;5073893;28;20049;-72
2022/09/14 02:49:49;;;;;;;3.97;1.65;;;;;;;;;;5071567;28;20052;-71
2022/09/14 02:52:48;;;;;;;6.15;2.45;;;;;;;;;;5070436;28;20045;-72
2022/09/14 02:55:17;;;;;;;9.77;3.17;;;;;;;;;;5016962;28;20118;-72
2022/09/14 02:58:03;;;;;;;3.72;2.40;;;;;;;;;;5072938;28;20038;-71
2022/09/14 03:00:31;;;;;;;3.80;1.90;;;;;;;;;;5064797;28;20040;-72
2022/09/14 03:02:57;;;;;;;7.47;2.00;;;;;;;;;;5076909;28;20211;-72
2022/09/14 03:05:23;;;;;;;6.68;1.90;;;;;;;;;;5074200;28;20052;-71
2022/09/14 03:07:49;;;;;;;4.13;2.25;;;;;;;;;;5075688;28;20672;-71
2022/09/14 03:10:16;;;;;;;5.25;1.67;;;;;;;;;;5074369;28;20075;-71
2022/09/14 03:12:42;;;;;;;4.43;1.58;;;;;;;;;;5074241;28;20040;-72
2022/09/14 03:15:08;;;;;;;4.00;2.08;;;;;;;;;;5075488;28;20108;-72
2022/09/14 03:17:34;;;;;;;4.68;1.50;;;;;;;;;;5058637;28;20041;-72
2022/09/14 03:20:00;;;;;;;4.97;2.00;;;;;;;;;;5076474;28;20041;-72
2022/09/14 03:22:26;;;;;;;4.07;1.48;;;;;;;;;;5073394;28;20766;-72
2022/09/14 03:24:52;;;;;;;5.65;2.00;;;;;;;;;;5075567;28;20568;-72
2022/09/14 03:27:18;;;;;;;3.95;1.95;;;;;;;;;;5073343;28;20613;-72
2022/09/14 03:29:45;;;;;;;4.93;1.65;;;;;;;;;;5074028;28;20072;-72
2022/09/14 03:32:11;;;;;;;4.90;2.28;;;;;;;;;;5071161;28;20043;-72
2022/09/14 03:34:37;;;;;;;4.70;1.80;;;;;;;;;;5073008;28;20102;-72
2022/09/14 03:37:03;;;;;;;6.75;2.15;;;;;;;;;;5075226;28;20044;-72
2022/09/14 03:39:29;;;;;;;6.90;1.83;;;;;;;;;;5074430;28;20106;-71
2022/09/14 03:41:55;;;;;;;7.15;1.67;;;;;;;;;;5066023;28;20037;-72
2022/09/14 03:44:22;;;;;;;5.57;2.15;;;;;;;;;;5074844;28;20071;-72
2022/09/14 03:46:50;;;;;;;3.97;2.25;;;;;;;;;;5072242;28;20124;-72
2022/09/14 03:49:16;;;;;;;3.95;1.88;;;;;;;;;;5073997;28;20048;-72
2022/09/14 03:51:44;;;;;;;7.18;2.83;;;;;;;;;;5071558;28;20063;-73
2022/09/14 03:54:10;;;;;;;4.15;2.05;;;;;;;;;;5067558;28;20041;-72
2022/09/14 03:56:37;;;;;;;2.83;1.88;;;;;;;;;;5050021;28;20040;-72
2022/09/14 03:59:03;;;;;;;2.25;1.52;;;;;;;;;;5066811;28;20032;-71
2022/09/14 04:01:31;;;;;;;7.18;2.13;;;;;;;;;;5071157;28;20742;-72
2022/09/14 04:03:57;;;;;;;3.53;2.00;;;;;;;;;;5073498;28;20043;-72
2022/09/14 04:06:24;;;;;;;3.70;2.17;;;;;;;;;;5073583;28;20045;-72
2022/09/14 04:08:51;;;;;;;2.50;2.00;;;;;;;;;;5070986;28;20798;-71
2022/09/14 04:11:21;;;;;;;5.65;2.95;;;;;;;;;;5071260;28;20044;-72
2022/09/14 04:13:47;;;;;;;4.70;2.22;;;;;;;;;;5056953;28;20036;-72
2022/09/14 04:16:14;;;;;;;4.07;2.35;;;;;;;;;;5073666;28;20098;-72
2022/09/14 04:18:40;;;;;;;4.88;2.05;;;;;;;;;;5074909;28;20565;-72
2022/09/14 04:21:08;;;;;;;5.20;2.08;;;;;;;;;;5072705;28;20083;-72
2022/09/14 04:23:34;;;;;;;2.20;1.70;;;;;;;;;;5071543;28;20044;-72
2022/09/14 04:26:00;;;;;;;8.55;2.45;;;;;;;;;;5074637;28;20036;-72
2022/09/14 04:28:27;;;;;;;6.07;2.38;;;;;;;;;;5072277;28;20049;-72
2022/09/14 04:30:56;;;;;;;4.00;2.28;;;;;;;;;;5066779;28;20052;-72
2022/09/14 04:33:22;;;;;;;3.40;2.42;;;;;;;;;;5073623;28;20091;-72
2022/09/14 04:35:56;;;;;;;4.68;2.72;;;;;;;;;;5071010;28;20163;-72
2022/09/14 04:38:22;;;;;;;6.25;1.90;;;;;;;;;;5071368;28;20044;-72
2022/09/14 04:40:48;;;;;;;9.18;3.15;;;;;;;;;;5063266;28;20040;-72
2022/09/14 04:43:14;;;;;;;4.88;2.08;;;;;;;;;;5071004;28;20037;-71
2022/09/14 04:45:40;;;;;;;4.07;1.90;;;;;;;;;;5072507;28;20045;-72
2022/09/14 04:48:07;;;;;;;4.82;2.30;;;;;;;;;;5060660;28;20122;-71
2022/09/14 04:50:33;;;;;;;6.82;2.28;;;;;;;;;;5071155;28;20070;-71
2022/09/14 04:52:59;;;;;;;5.13;2.50;;;;;;;;;;5046118;28;20116;-73
2022/09/14 04:55:26;;;;;;;8.85;2.42;;;;;;;;;;5066380;28;20044;-72
2022/09/14 04:57:52;;;;;;;6.55;2.67;;;;;;;;;;5069900;28;20123;-71
2022/09/14 05:00:18;;;;;;;9.70;2.28;;;;;;;;;;5068821;28;20053;-71
2022/09/14 05:02:47;;;;;;;4.63;2.35;;;;;;;;;;5080622;28;20056;-72
2022/09/14 05:05:13;;;;;;;5.03;2.42;;;;;;;;;;5069579;28;20040;-71
2022/09/14 05:07:42;;;;;;;3.28;2.42;;;;;;;;;;5069252;28;20163;-77
2022/09/14 05:10:10;;;;;;;5.07;2.05;;;;;;;;;;5046477;28;20044;-73
2022/09/14 05:12:36;;;;;;;5.18;2.60;;;;;;;;;;5068415;28;20037;-72
2022/09/14 05:15:03;;;;;;;5.30;3.30;;;;;;;;;;5066759;28;20087;-71
2022/09/14 05:17:29;;;;;;;5.40;2.15;;;;;;;;;;5067220;28;20045;-71
2022/09/14 05:19:55;;;;;;;4.10;2.13;;;;;;;;;;5064845;28;20131;-72
2022/09/14 05:22:21;;;;;;;5.03;2.60;;;;;;;;;;5063916;28;20053;-71
2022/09/14 05:24:47;;;;;;;4.40;2.70;;;;;;;;;;5026512;28;20087;-71
2022/09/14 05:27:13;;;;;;;8.00;2.67;;;;;;;;;;5060966;28;20050;-70
2022/09/14 05:29:39;;;;;;;7.45;3.10;;;;;;;;;;5063821;28;20104;-71
2022/09/14 05:32:06;;;;;;;4.30;2.47;;;;;;;;;;5040969;28;20045;-71
2022/09/14 05:34:32;;;;;;;5.25;2.50;;;;;;;;;;5064896;28;20042;-71
2022/09/14 05:36:58;;;;;;;6.43;2.88;;;;;;;;;;5064289;28;20466;-71
2022/09/14 05:39:24;;;;;;;4.88;2.35;;;;;;;;;;5065451;28;20622;-71
2022/09/14 05:41:54;;;;;;;4.53;2.72;;;;;;;;;;5061957;28;20034;-71
2022/09/14 05:44:20;;;;;;;5.93;3.15;;;;;;;;;;5064865;28;20105;-72
2022/09/14 05:46:46;;;;;;;4.90;2.20;;;;;;;;;;5063457;28;20168;-73
2022/09/14 05:49:12;;;;;;;4.10;2.28;;;;;;;;;;5039495;28;20479;-70
2022/09/14 05:51:38;;;;;;;12.60;4.30;;;;;;;;;;5025956;28;20049;-71
2022/09/14 05:54:10;;;;;;;5.72;3.53;;;;;;;;;;5063782;28;20092;-70
2022/09/14 05:59:34;;;;;;;7.28;2.67;;;;;;;;;;5014238;28;19976;-74
2022/09/14 06:02:00;;;;;;;4.47;3.28;;;;;;;;;;5057595;28;20038;-73
2022/09/14 06:04:27;;;;;;;6.28;3.60;;;;;;;;;;5053667;28;20052;-71
2022/09/14 06:06:53;;;;;;;8.90;3.33;;;;;;;;;;5060237;28;20041;-72
2022/09/14 06:09:19;;;;;;;6.90;2.95;;;;;;;;;;5060829;28;20046;-71
2022/09/14 06:11:45;;;;;;;6.32;3.40;;;;;;;;;;5061043;28;20048;-71
2022/09/14 06:14:11;;;;;;;6.13;3.33;;;;;;;;;;5064808;28;20045;-70
2022/09/14 06:16:37;;;;;;;5.78;3.50;;;;;;;;;;5037213;28;20042;-74
2022/09/14 06:19:04;;;;;;;6.28;3.47;;;;;;;;;;5061583;28;20034;-69
2022/09/14 06:21:31;;;;;;;5.15;3.28;;;;;;;;;;5052414;28;20209;-71
2022/09/14 06:23:58;;;;;;;7.40;3.55;;;;;;;;;;5071097;28;20120;-70
2022/09/14 06:26:24;;;;;;;8.05;3.72;;;;;;;;;;5068228;28;20609;-70
2022/09/14 06:28:51;;;;;;;6.32;3.53;;;;;;;;;;5068687;28;21199;-71
2022/09/14 06:31:24;;;;;;;4.35;2.80;;;;;;;;;;5074237;28;20123;-71
2022/09/14 06:33:51;;;;;;;7.38;4.07;;;;;;;;;;5074320;28;20083;-69
2022/09/14 06:36:18;;;;;;;6.60;3.08;;;;;;;;;;5075108;28;20293;-70
2022/09/14 06:38:45;;;;;;;7.78;3.53;;;;;;;;;;5075686;28;20047;-72
2022/09/14 06:41:12;;;;;;;8.48;3.22;;;;;;;;;;5076688;28;20036;-72
2022/09/14 06:43:39;;;;;;;9.35;2.97;;;;;;;;;;5075816;28;20043;-70
2022/09/14 06:46:06;;;;;;;4.70;2.83;;;;;;;;;;5077553;28;20482;-71
2022/09/14 06:48:33;;;;;;;7.68;2.60;;;;;;;;;;5076278;28;20641;-71
2022/09/14 06:51:00;;;;;;;6.97;2.75;;;;;;;;;;5075974;28;20043;-70
2022/09/14 06:53:26;;;;;;;6.38;3.63;;;;;;;;;;5076898;28;20052;-70
2022/09/14 06:55:52;;;;;;;5.40;2.33;;;;;;;;;;5072734;28;20039;-71
2022/09/14 06:58:18;;;;;;;5.25;2.47;;;;;;;;;;5077146;28;20037;-70
2022/09/14 07:00:45;;;;;;;5.80;2.40;;;;;;;;;;5076751;28;20041;-71
2022/09/14 07:03:11;;;;;;;5.68;2.85;;;;;;;;;;5075680;28;20770;-70
2022/09/14 07:05:37;;;;;;;4.28;2.92;;;;;;;;;;5078355;28;20450;-70
2022/09/14 07:08:03;;;;;;;3.85;2.13;;;;;;;;;;5077380;28;20064;-70
2022/09/14 07:10:29;;;;;;;5.72;2.63;;;;;;;;;;5068374;28;20056;-71
2022/09/14 07:12:55;;;;;;;3.80;2.17;;;;;;;;;;5068553;28;20041;-70
2022/09/14 07:15:21;;;;;;;5.10;2.45;;;;;;;;;;5068824;28;20055;-70
2022/09/14 07:17:47;;;;;;;5.10;2.50;;;;;;;;;;5076269;28;20040;-71
2022/09/14 07:20:17;;;;;;;5.00;2.22;;;;;;;;;;5076267;28;20056;-70
2022/09/14 07:22:44;;;;;;;7.63;2.78;;;;;;;;;;5076468;28;20506;-70
2022/09/14 07:25:10;;;;;;;3.45;1.90;;;;;;;;;;5076517;28;20083;-70
2022/09/14 07:27:39;;;;;;;3.60;2.00;;;;;;;;;;5091727;28;21094;-70
2022/09/14 07:30:07;;;;;;;5.68;2.58;;;;;;;;;;5078213;28;20120;-70
2022/09/14 07:32:33;;;;;;;4.22;2.03;;;;;;;;;;5075204;28;20044;-70
2022/09/14 07:34:59;;;;;;;6.03;2.20;;;;;;;;;;5076431;28;20388;-70
2022/09/14 07:37:25;;;;;;;4.15;2.40;;;;;;;;;;5068726;28;20044;-70
2022/09/14 07:39:52;;;;;;;6.32;3.28;;;;;;;;;;5059506;28;20206;-70
2022/09/14 07:42:18;;;;;;;4.43;2.15;;;;;;;;;;5076510;28;20052;-70
2022/09/14 07:44:44;;;;;;;3.45;2.03;;;;;;;;;;5075220;28;20493;-70
2022/09/14 07:47:10;;;;;;;5.05;2.25;;;;;;;;;;5065136;28;20438;-70
2022/09/14 07:49:36;;;;;;;3.58;2.10;;;;;;;;;;5075664;28;20044;-70
2022/09/14 07:52:02;;;;;;;3.88;2.08;;;;;;;;;;5077024;28;20052;-70
2022/09/14 07:54:28;;;;;;;7.13;2.33;;;;;;;;;;5075611;28;20581;-70
2022/09/14 07:56:54;;;;;;;4.72;2.20;;;;;;;;;;5068912;28;20033;-70
2022/09/14 07:59:20;;;;;;;4.28;2.33;;;;;;;;;;5074944;28;20040;-70
2022/09/14 08:01:48;;;;;;;2.58;1.98;;;;;;;;;;5075216;28;20039;-71
2022/09/14 08:04:14;;;;;;;2.80;1.98;;;;;;;;;;5075489;28;20045;-70
2022/09/14 08:06:41;;;;;;;3.13;1.80;;;;;;;;;;5074897;28;20029;-70
2022/09/14 08:09:10;;;;;;;4.85;2.35;;;;;;;;;;5075627;28;20040;-71
2022/09/14 08:11:36;;;;;;;4.32;2.00;;;;;;;;;;5073862;28;20135;-70
2022/09/14 08:14:04;;;;;;;4.50;1.85;;;;;;;;;;5076049;28;20048;-70
2022/09/14 08:16:31;;;;;;;6.25;2.53;;;;;;;;;;5073893;28;20043;-70
2022/09/14 08:18:59;;;;;;;4.75;1.92;;;;;;;;;;5074121;28;20036;-70
2022/09/14 08:21:25;;;;;;;4.63;2.45;;;;;;;;;;5073344;28;20085;-70
2022/09/14 08:23:51;;;;;;;3.58;2.10;;;;;;;;;;5074047;28;20040;-70
2022/09/14 08:26:19;;;;;;;4.88;2.72;;;;;;;;;;5074910;28;20045;-70
2022/09/14 08:28:46;;;;;;;4.00;2.10;;;;;;;;;;5073950;28;20530;-70
2022/09/14 08:31:23;;;;;;;8.30;3.35;;;;;;;;;;5072679;28;20189;-70
2022/09/14 08:33:57;;;;;;;6.55;3.13;;;;;;;;;;5074331;28;20036;-70
2022/09/14 08:36:24;;;;;;;6.05;2.92;;;;;;;;;;5074091;28;20041;-70
2022/09/14 08:38:50;;;;;;;10.82;3.72;;;;;;;;;;5072359;28;20149;-70
2022/09/14 08:41:32;;;;;;;4.30;2.78;;;;;;;;;;5074015;28;20098;-70
2022/09/14 08:44:16;;;;;;;4.82;2.58;;;;;;;;;;5074437;28;20041;-71
2022/09/14 08:46:45;;;;;;;6.05;2.42;;;;;;;;;;5071914;28;20097;-70
2022/09/14 08:49:15;;;;;;;3.75;2.17;;;;;;;;;;5072492;28;20507;-71
2022/09/14 08:51:41;;;;;;;4.70;2.20;;;;;;;;;;5073798;28;20186;-71
2022/09/14 08:54:09;;;;;;;4.13;2.35;;;;;;;;;;5076197;28;20037;-71
2022/09/14 08:56:37;;;;;;;5.80;2.10;;;;;;;;;;5066824;28;20089;-70
2022/09/14 08:59:03;;;;;;;4.20;1.95;;;;;;;;;;5074807;28;20123;-70
2022/09/14 09:01:41;;;;;;;5.00;2.22;;;;;;;;;;5074028;28;20044;-70
2022/09/14 09:04:40;;;;;;;4.00;2.15;;;;;;;;;;5073573;28;20550;-71
2022/09/14 09:07:21;;;;;;;4.68;2.45;;;;;;;;;;5020496;28;20052;-71
2022/09/14 09:09:49;;;;;;;6.28;2.47;;;;;;;;;;5074997;28;20047;-71
2022/09/14 09:12:19;;;;;;;3.60;2.05;;;;;;;;;;5075680;28;20072;-70
2022/09/14 09:14:49;;;;;;;4.72;2.80;;;;;;;;;;5073941;28;20175;-70
2022/09/14 09:17:17;;;;;;;7.78;2.22;;;;;;;;;;5074823;28;20102;-71
2022/09/14 09:19:49;;;;;;;7.22;3.13;;;;;;;;;;5074663;28;20068;-71
2022/09/14 09:22:16;;;;;;;4.68;2.25;;;;;;;;;;5056275;28;20056;-70
2022/09/14 09:24:45;;;;;;;5.35;1.90;;;;;;;;;;5091273;28;20037;-71
2022/09/14 09:27:12;;;;;;;5.32;2.20;;;;;;;;;;5072420;28;20043;-71
2022/09/14 09:29:38;;;;;;;4.10;2.33;;;;;;;;;;5073102;28;20047;-71
2022/09/14 09:32:06;;;;;;;3.90;2.50;;;;;;;;;;5072319;28;20036;-70
2022/09/14 09:34:33;;;;;;;2.97;1.63;;;;;;;;;;5074392;28;20044;-71
2022/09/14 09:36:59;;;;;;;3.40;2.00;;;;;;;;;;5054950;28;20572;-71
2022/09/14 09:39:26;;;;;;;3.53;1.80;;;;;;;;;;5073079;28;20104;-70
2022/09/14 09:41:58;;;;;;;6.25;2.58;;;;;;;;;;5073366;28;20050;-71
2022/09/14 09:44:24;;;;;;;;;;;;;;;;;;5073544;28;20052;-71
2022/09/14 09:46:51;;;;;;;4.25;2.10;;;;;;;;;;5072999;28;19931;-71
2022/09/14 09:49:20;;;;;;;6.57;2.13;;;;;;;;;;5073814;28;20044;-71
2022/09/14 09:51:47;;;;;;;3.65;1.90;;;;;;;;;;5074022;28;20044;-70
2022/09/14 09:54:14;;;;;;;7.18;3.33;;;;;;;;;;5074251;28;20044;-70
2022/09/14 09:56:49;;;;;;;4.25;2.25;;;;;;;;;;5073043;28;20045;-71
2022/09/14 09:59:31;;;;;;;5.47;2.80;;;;;;;;;;5073670;28;20040;-70
2022/09/14 10:02:17;;;;;;;4.43;2.05;;;;;;;;;;5070727;28;20037;-70
2022/09/14 10:04:55;;;;;;;4.93;2.60;;;;;;;;;;5072229;28;20040;-70
2022/09/14 10:07:22;;;;;;;4.68;2.00;;;;;;;;;;5074317;28;20521;-71
2022/09/14 10:09:57;;;;;;;3.83;1.85;;;;;;;;;;5073022;28;20102;-71
2022/09/14 10:12:23;;;;;;;8.10;2.33;;;;;;;;;;5093721;28;20290;-71
2022/09/14 10:14:50;;;;;;;8.85;2.40;;;;;;;;;;5076686;28;20045;-70
2022/09/14 10:17:20;;;;;;;4.88;2.17;;;;;;;;;;5076030;28;20032;-71
2022/09/14 10:19:51;;;;;;;7.75;3.40;;;;;;;;;;5075798;28;20040;-70
2022/09/14 10:22:27;;;;;;;8.73;4.20;;;;;;;;;;5069210;28;21351;-70
2022/09/14 10:25:20;;;;;;;5.93;2.38;;;;;;;;;;5071877;28;20046;-71
2022/09/14 10:27:56;;;;;;;8.57;2.63;;;;;;;;;;5070563;28;20053;-71
2022/09/14 10:30:27;;;;;;;4.47;2.13;;;;;;;;;;5069012;28;20043;-70
2022/09/14 10:32:53;;;;;;;2.78;1.70;;;;;;;;;;5070028;28;20033;-71
2022/09/14 10:35:20;;;;;;;6.05;2.15;;;;;;;;;;5069658;28;20056;-71
2022/09/14 10:37:52;;;;;;;5.75;2.40;;;;;;;;;;5070807;28;20065;-71
2022/09/14 10:40:19;;;;;;;4.07;2.05;;;;;;;;;;5038207;28;20117;-71
2022/09/14 10:42:55;;;;;;;5.50;1.90;;;;;;;;;;5038869;28;20041;-71
2022/09/14 10:45:26;;;;;;;4.40;1.95;;;;;;;;;;5066926;28;20050;-70
2022/09/14 10:48:07;;;;;;;4.13;2.42;;;;;;;;;;5070451;28;20203;-71
2022/09/14 10:50:46;;;;;;;6.07;1.90;;;;;;;;;;5070129;28;20060;-71
2022/09/14 10:53:12;;;;;;;2.90;2.22;;;;;;;;;;5069728;28;20091;-70
2022/09/14 10:56:00;;;;;;;3.30;1.70;;;;;;;;;;5068872;28;20045;-71
2022/09/14 10:58:46;;;;;;;4.35;2.20;;;;;;;;;;5069413;28;20115;-70
2022/09/14 11:01:18;;;;;;;5.85;2.20;;;;;;;;;;5067752;28;20168;-70
2022/09/14 11:03:44;;;;;;;2.90;1.92;;;;;;;;;;5068532;28;20045;-71
2022/09/14 11:06:23;;;;;;;4.72;2.70;;;;;;;;;;5069482;28;20056;-71
2022/09/14 11:09:00;;;;;;;6.80;2.80;;;;;;;;;;5068649;28;20045;-71
2022/09/14 11:11:29;;;;;;;5.57;2.10;;;;;;;;;;5036926;28;20047;-71
2022/09/14 11:14:05;;;;;;;7.00;3.22;;;;;;;;;;5069995;28;20041;-71
2022/09/14 11:16:58;;;;;;;3.17;1.60;;;;;;;;;;5067411;28;20547;-70
2022/09/14 11:19:24;;;;;;;3.75;2.10;;;;;;;;;;5010812;28;20049;-70
2022/09/14 11:21:53;;;;;;;6.07;2.28;;;;;;;;;;5079322;28;20052;-70
2022/09/14 11:24:25;;;;;;;4.03;1.88;;;;;;;;;;5051981;28;20036;-71
2022/09/14 11:26:54;;;;;;;7.28;2.20;;;;;;;;;;5050973;28;20103;-71
2022/09/14 11:29:25;;;;;;;3.78;1.58;;;;;;;;;;5063152;28;20599;-71
2022/09/14 11:32:17;;;;;;;3.57;1.63;;;;;;;;;;5063762;28;20037;-71
2022/09/14 11:34:53;;;;;;;3.45;1.55;;;;;;;;;;5047978;28;20052;-70
2022/09/14 11:37:21;;;;;;;6.10;1.92;;;;;;;;;;5066814;28;20044;-70
2022/09/14 11:39:51;;;;;;;2.58;1.65;;;;;;;;;;5063271;28;20075;-71
2022/09/14 11:42:30;;;;;;;3.10;1.90;;;;;;;;;;5053800;28;20252;-71
2022/09/14 11:45:02;;;;;;;3.88;1.77;;;;;;;;;;5049585;28;20064;-70
2022/09/14 11:47:34;;;;;;;4.45;1.60;;;;;;;;;;5054538;28;20052;-70
2022/09/14 11:50:06;;;;;;;2.28;1.33;;;;;;;;;;5054904;28;20632;-71
2022/09/14 11:52:33;;;;;;;8.18;1.73;;;;;;;;;;5054675;28;20048;-71
2022/09/14 11:55:00;;;;;;;2.55;1.30;;;;;;;;;;5064477;28;20506;-70
2022/09/14 11:57:28;;;;;;;5.40;1.58;;;;;;;;;;5051527;28;20099;-70
2022/09/14 12:00:03;;;;;;;3.05;1.70;;;;;;;;;;5063747;28;20117;-70
2022/09/14 12:02:29;;;;;;;6.97;2.20;;;;;;;;;;5052271;28;20045;-70
2022/09/14 12:05:05;;;;;;;3.78;2.13;;;;;;;;;;5061853;28;20036;-71
2022/09/14 12:07:46;;;;;;;3.03;1.50;;;;;;;;;;5055638;28;20049;-71
2022/09/14 12:10:18;;;;;;;2.92;1.35;;;;;;;;;;5065080;28;20045;-71
2022/09/14 12:12:47;;;;;;;2.40;1.45;;;;;;;;;;5065284;28;20045;-71
2022/09/14 12:15:25;;;;;;;2.50;1.55;;;;;;;;;;5063689;28;20680;-71
2022/09/14 12:18:03;;;;;;;3.88;1.40;;;;;;;;;;5056886;28;20045;-71
2022/09/14 12:20:39;;;;;;;3.35;1.75;;;;;;;;;;5058604;28;20056;-70
2022/09/14 12:23:05;;;;;;;2.58;1.38;;;;;;;;;;5073372;28;20055;-70
2022/09/14 12:25:31;;;;;;;4.63;1.40;;;;;;;;;;5074361;28;20131;-71
2022/09/14 12:27:58;;;;;;;3.67;1.75;;;;;;;;;;5077146;28;20186;-71
2022/09/14 12:30:53;;;;;;;3.30;1.70;;;;;;;;;;5074040;28;20068;-70
2022/09/14 12:33:31;;;;;;;3.25;1.42;;;;;;;;;;4987822;28;20496;-70
2022/09/14 12:35:58;;;;;;;3.95;1.70;;;;;;;;;;5073685;28;20160;-71
2022/09/14 12:38:30;;;;;;;2.65;1.58;;;;;;;;;;5073137;28;20052;-71
2022/09/14 12:40:57;;;;;;;5.82;1.50;;;;;;;;;;5074057;28;20191;-70
2022/09/14 12:43:33;;;;;;;2.33;1.17;;;;;;;;;;5075562;28;20048;-70
2022/09/14 12:46:02;;;;;;;3.85;1.80;;;;;;;;;;5075207;28;20855;-71
2022/09/14 12:48:47;;;;;;;5.07;1.50;;;;;;;;;;5071310;28;20106;-71
2022/09/14 12:51:16;;;;;;;3.45;1.77;;;;;;;;;;5072943;28;20094;-70
2022/09/14 12:53:43;;;;;;;3.30;1.20;;;;;;;;;;5090426;28;20044;-70
2022/09/14 12:56:23;;;;;;;3.90;2.03;;;;;;;;;;5065544;28;20032;-70
2022/09/14 12:58:49;;;;;;;1.92;1.10;;;;;;;;;;5066787;28;20052;-71
2022/09/14 13:01:35;;;;;;;2.13;1.10;;;;;;;;;;5073466;28;20529;-71
2022/09/14 13:04:03;;;;;;;2.70;1.10;;;;;;;;;;5073331;28;20036;-71
2022/09/14 13:06:40;;;;;;;2.25;1.20;;;;;;;;;;5075122;28;20595;-71
2022/09/14 13:09:11;;;;;;;1.33;0.80;;;;;;;;;;5057704;28;20044;-72
2022/09/14 13:11:38;;;;;;;1.80;1.15;;;;;;;;;;5074084;28;20700;-71
2022/09/14 13:14:04;;;;;;;4.13;0.85;;;;;;;;;;5074548;28;20131;-71
2022/09/14 13:16:39;;;;;;;2.15;0.95;;;;;;;;;;5073109;28;20123;-70
2022/09/14 13:19:06;;;;;;;2.78;0.93;;;;;;;;;;5073401;28;20511;-71
2022/09/14 13:21:32;;;;;;;1.33;0.95;;;;;;;;;;5074881;28;20055;-71
2022/09/14 13:23:58;;;;;;;1.73;0.90;;;;;;;;;;5073773;28;20043;-71
2022/09/14 13:26:30;;;;;;;2.13;0.93;;;;;;;;;;5074457;28;20072;-71
2022/09/14 13:28:57;;;;;;;3.97;1.00;;;;;;;;;;5071327;28;20041;-71
2022/09/14 13:31:34;;;;;;;3.50;1.00;;;;;;;;;;5074574;28;20045;-71
2022/09/14 13:34:01;;;;;;;3.42;0.80;;;;;;;;;;5072191;28;20076;-71
2022/09/14 13:36:40;;;;;;;1.50;0.90;;;;;;;;;;5075595;28;20035;-70
2022/09/14 13:39:10;;;;;;;4.03;0.95;;;;;;;;;;5066718;28;20521;-71
2022/09/14 13:41:42;;;;;;;1.58;0.65;;;;;;;;;;5073252;28;20036;-73
2022/09/14 13:44:08;;;;;;;1.98;1.05;;;;;;;;;;5074733;28;20068;-71
2022/09/14 13:46:36;;;;;;;1.80;0.75;;;;;;;;;;5071927;28;20564;-71
2022/09/14 13:49:02;;;;;;;1.88;0.90;;;;;;;;;;5072469;28;20597;-71
2022/09/14 13:51:28;;;;;;;1.77;0.82;;;;;;;;;;5074870;28;20656;-71
2022/09/14 13:53:56;;;;;;;1.88;0.88;;;;;;;;;;5073866;28;20041;-71
2022/09/14 13:56:25;;;;;;;1.45;0.95;;;;;;;;;;5075021;28;20071;-71
2022/09/14 13:59:11;;;;;;;2.83;1.10;;;;;;;;;;5073257;28;20048;-71
2022/09/14 14:01:38;;;;;;;2.88;1.33;;;;;;;;;;5071199;28;20708;-71
2022/09/14 14:04:05;;;;;;;5.50;1.25;;;;;;;;;;5069442;28;20069;-72
2022/09/14 14:06:36;;;;;;;3.38;1.05;;;;;;;;;;5071260;28;20566;-71
2022/09/14 14:09:02;;;;;;;;;;;;;;;;;;5071109;28;20091;-71
2022/09/14 14:11:30;;;;;;;3.38;1.33;;;;;;;;;;5069964;28;19920;-71
2022/09/14 14:14:08;;;;;;;2.67;1.50;;;;;;;;;;5059512;28;20042;-70
2022/09/14 14:16:34;;;;;;;2.55;1.25;;;;;;;;;;5068768;28;20144;-70
2022/09/14 14:19:00;;;;;;;1.80;1.00;;;;;;;;;;5043596;28;20116;-70
2022/09/14 14:21:28;;;;;;;2.45;1.15;;;;;;;;;;5070218;28;20073;-70
2022/09/14 14:24:13;;;;;;;2.67;1.05;;;;;;;;;;5083608;28;20040;-71
2022/09/14 14:26:46;;;;;;;3.42;1.08;;;;;;;;;;5071474;28;20161;-71
2022/09/14 14:29:15;;;;;;;1.55;0.85;;;;;;;;;;5066190;28;20277;-71
2022/09/14 14:31:43;;;;;;;2.88;1.17;;;;;;;;;;5065440;28;20037;-71
2022/09/14 14:34:18;;;;;;;5.15;1.33;;;;;;;;;;5066235;28;20047;-71
2022/09/14 14:36:46;;;;;;;2.03;1.00;;;;;;;;;;5064952;28;20029;-71
2022/09/14 14:39:12;;;;;;;1.63;0.90;;;;;;;;;;5068940;28;20159;-71
2022/09/14 14:41:38;;;;;;;3.53;1.42;;;;;;;;;;5065888;28;20075;-71
2022/09/14 14:44:04;;;;;;;3.15;0.90;;;;;;;;;;5064788;28;20041;-70
2022/09/14 14:46:31;;;;;;;5.03;1.65;;;;;;;;;;5064407;28;20097;-71
2022/09/14 14:48:57;;;;;;;6.53;1.48;;;;;;;;;;5063882;28;20049;-70
2022/09/14 14:51:24;;;;;;;3.53;1.35;;;;;;;;;;5050271;28;20048;-71
2022/09/14 14:53:50;;;;;;;4.97;0.93;;;;;;;;;;5065190;28;20041;-71
2022/09/14 14:56:16;;;;;;;3.10;1.00;;;;;;;;;;5065997;28;20131;-71
2022/09/14 14:58:46;;;;;;;2.72;0.80;;;;;;;;;;5068937;28;20053;-71
2022/09/14 15:01:12;;;;;;;3.85;1.00;;;;;;;;;;5070770;28;20033;-71